Terminal Aerodrome Forecast
Issued by NWS Grand Forks, ND

Home | Current Version | Previous Version | Text Only | Print | Product List | Glossary Off
Versions: 1 2 3 4 5 6 7 8 9 10 11 12 13 14

800
FTUS43 KFGF 242321
TAFFAR
TAF
KFAR 242321Z 2500/2524 27013KT P6SM SCT070
      TEMPO 2500/2502 BKN070
     FM250300 26009KT P6SM SCT250
     FM251400 30013KT P6SM BKN025
     FM251800 31012KT P6SM BKN040
     FM252200 31011KT P6SM SCT050=

USA.gov is the U.S. government's official web portal to all federal, state and local government web resources and services.